Time;durP1;ratioP1;P1;durP2;ratioP2;P2;SDS_P1;SDS_P2;PMS_P1;PMS_P2;Temp;Humidity;BMP_temperature;BMP_pressure;BME280_temperature;BME280_humidity;BME280_pressure;Samples;Min_cycle;Max_cycle;Signal;HPM_P1;HPM_P2
2021/12/18 00:00:50;;;;;;;4.57;1.45;;;7.10;99.90;;;;;;5068283;28;20374;-80
2021/12/18 00:03:17;;;;;;;3.38;1.20;;;7.00;99.90;;;;;;5051354;28;20064;-79
2021/12/18 00:05:44;;;;;;;6.95;1.40;;;7.00;99.90;;;;;;5053702;28;20170;-80
2021/12/18 00:08:10;;;;;;;;;;;7.00;99.90;;;;;;5069952;28;20071;-80
2021/12/18 00:10:36;;;;;;;9.15;1.20;;;7.50;99.90;;;;;;5070658;28;19916;-79
2021/12/18 00:13:03;;;;;;;12.20;1.92;;;6.90;99.90;;;;;;5036936;28;20039;-79
2021/12/18 00:15:30;;;;;;;15.70;1.77;;;7.10;99.90;;;;;;5036403;28;20036;-80
2021/12/18 00:17:57;;;;;;;25.85;2.60;;;6.80;99.90;;;;;;5053229;28;20053;-80
2021/12/18 00:20:25;;;;;;;18.88;1.90;;;7.40;99.90;;;;;;5069887;28;20036;-79
2021/12/18 00:22:51;;;;;;;28.83;2.10;;;6.80;99.90;;;;;;5052973;28;20044;-80
2021/12/18 00:25:17;;;;;;;43.58;2.88;;;6.70;99.90;;;;;;5068050;28;20115;-80
2021/12/18 00:27:43;;;;;;;13.15;1.55;;;6.80;99.90;;;;;;5034213;28;21111;-80
2021/12/18 00:30:09;;;;;;;13.32;1.38;;;6.80;99.90;;;;;;5068161;28;20385;-80
2021/12/18 00:32:35;;;;;;;6.18;1.42;;;6.80;99.90;;;;;;5068626;28;20504;-79
2021/12/18 00:35:01;;;;;;;8.15;1.40;;;6.80;99.90;;;;;;5067681;28;20036;-80
2021/12/18 00:37:27;;;;;;;4.43;1.30;;;6.80;99.90;;;;;;5052442;28;20036;-80
2021/12/18 00:39:57;;;;;;;7.88;1.80;;;6.80;99.90;;;;;;5053253;28;20111;-79
2021/12/18 00:42:40;;;;;;;13.65;2.03;;;6.80;99.90;;;;;;5053025;28;20381;-79
2021/12/18 00:45:15;;;;;;;16.83;2.10;;;6.80;99.90;;;;;;5069576;28;20120;-79
2021/12/18 00:47:41;;;;;;;9.52;1.85;;;6.80;99.90;;;;;;5069938;28;20055;-79
2021/12/18 00:50:10;;;;;;;;;;;6.70;99.90;;;;;;5053113;28;20044;-80
2021/12/18 00:52:35;;;;;;;10.52;2.10;;;6.80;99.90;;;;;;5069187;28;19916;-79
2021/12/18 00:55:02;;;;;;;6.47;2.10;;;6.80;99.90;;;;;;5069743;28;20032;-80
2021/12/18 00:57:28;;;;;;;7.70;1.88;;;6.80;99.90;;;;;;5052274;28;20136;-79
2021/12/18 00:59:59;;;;;;;10.65;2.72;;;6.80;99.90;;;;;;5069477;28;20400;-79
2021/12/18 01:02:26;;;;;;;6.55;1.95;;;6.70;99.90;;;;;;5053190;28;21670;-79
2021/12/18 01:04:51;;;;;;;;;;;6.70;99.90;;;;;;5069558;28;20046;-79
2021/12/18 01:07:17;;;;;;;9.70;1.83;;;6.70;99.90;;;;;;5068516;28;20003;-79
2021/12/18 01:12:09;;;;;;;7.60;1.80;;;6.70;99.90;;;;;;5069376;28;20287;-80
2021/12/18 01:14:51;;;;;;;;;;;6.70;99.90;;;;;;5083012;28;20070;-79
2021/12/18 01:25:13;;;;;;;9.68;1.73;;;6.60;99.90;;;;;;5055438;28;20713;-79
2021/12/18 01:27:38;;;;;;;15.43;2.20;;;6.60;99.90;;;;;;5068903;28;20123;-80
2021/12/18 01:30:07;;;;;;;8.65;1.88;;;7.00;99.90;;;;;;5052395;28;20037;-80
2021/12/18 01:32:33;;;;;;;12.80;1.90;;;6.60;99.90;;;;;;5051644;28;20090;-79
2021/12/18 01:34:59;;;;;;;7.05;1.77;;;7.30;99.90;;;;;;5052380;28;20040;-79
2021/12/18 01:37:24;;;;;;;9.90;2.10;;;6.70;99.90;;;;;;5035434;28;20039;-79
2021/12/18 01:39:56;;;;;;;7.35;1.83;;;7.50;99.90;;;;;;5056400;28;20121;-80
2021/12/18 01:45:18;;;;;;;13.20;2.38;;;6.60;99.90;;;;;;5070970;28;20080;-79
2021/12/18 01:53:13;;;;;;;3.75;1.60;;;6.70;99.90;;;;;;5072910;28;20476;-80
2021/12/18 01:55:41;;;;;;;3.65;1.40;;;6.70;99.90;;;;;;5072319;28;20098;-80
2021/12/18 01:58:08;;;;;;;5.20;1.75;;;6.60;99.90;;;;;;5039575;28;20036;-79
2021/12/18 02:00:42;;;;;;;5.85;1.77;;;6.60;99.90;;;;;;5039601;28;20039;-79
2021/12/18 02:03:08;;;;;;;5.55;1.67;;;6.60;99.90;;;;;;5053963;28;20043;-79
2021/12/18 02:05:37;;;;;;;4.75;1.63;;;7.20;99.90;;;;;;5055422;28;20098;-80
2021/12/18 02:08:04;;;;;;;9.55;1.98;;;6.60;99.90;;;;;;5072271;28;20041;-80
2021/12/18 02:10:41;;;;;;;5.55;1.48;;;6.60;99.90;;;;;;5020605;28;20543;-80
2021/12/18 02:21:21;;;;;;;8.40;1.65;;;6.60;99.90;;;;;;5057623;28;20115;-79
2021/12/18 02:23:47;;;;;;;14.48;1.92;;;6.60;99.90;;;;;;5070289;28;20036;-80
2021/12/18 02:26:13;;;;;;;4.68;1.73;;;6.60;99.90;;;;;;5072434;28;20496;-79
2021/12/18 02:28:42;;;;;;;11.57;2.15;;;6.60;99.90;;;;;;5054983;28;20078;-80
2021/12/18 02:31:08;;;;;;;12.80;2.70;;;6.60;99.90;;;;;;5055755;28;20040;-80
2021/12/18 02:33:34;;;;;;;6.82;2.10;;;6.60;99.90;;;;;;5071664;28;20090;-79
2021/12/18 02:36:02;;;;;;;6.32;2.10;;;6.60;99.90;;;;;;5071735;28;20416;-80
2021/12/18 02:43:59;;;;;;;5.25;1.83;;;6.70;99.90;;;;;;5071762;28;20051;-80
2021/12/18 02:46:25;;;;;;;3.08;1.23;;;6.60;99.90;;;;;;5071274;28;20036;-79
2021/12/18 02:48:53;;;;;;;4.10;1.23;;;6.60;99.90;;;;;;5054634;28;20044;-80
2021/12/18 02:51:20;;;;;;;3.35;1.27;;;6.60;99.90;;;;;;5037845;28;20071;-79
2021/12/18 02:53:49;;;;;;;9.95;2.20;;;7.60;99.90;;;;;;5054545;28;20044;-80
2021/12/18 02:56:16;;;;;;;19.60;3.08;;;6.60;99.90;;;;;;5054491;28;20072;-80
2021/12/18 02:58:47;;;;;;;11.77;2.13;;;6.60;99.90;;;;;;5071180;28;20088;-79
2021/12/18 03:01:16;;;;;;;14.40;2.35;;;6.60;99.90;;;;;;5071478;28;20045;-80
2021/12/18 03:03:43;;;;;;;6.32;1.83;;;6.70;99.90;;;;;;5068748;28;20693;-79
2021/12/18 03:27:17;;;;;;;4.30;1.10;;;6.60;99.90;;;;;;5071037;28;20040;-79
2021/12/18 03:29:43;;;;;;;6.13;1.25;;;6.60;99.90;;;;;;5070488;28;20115;-79
2021/12/18 03:32:09;;;;;;;12.30;1.35;;;6.60;99.90;;;;;;5070957;28;20560;-79
2021/12/18 03:34:35;;;;;;;6.63;1.23;;;6.60;99.90;;;;;;5070324;28;20107;-79
2021/12/18 03:37:02;;;;;;;12.70;1.23;;;6.60;99.90;;;;;;5054314;28;20376;-79
2021/12/18 03:39:28;;;;;;;9.55;1.50;;;6.60;99.90;;;;;;5053753;28;20069;-80
2021/12/18 03:41:54;;;;;;;10.70;1.15;;;7.10;99.90;;;;;;5053941;28;20068;-80
2021/12/18 03:44:21;;;;;;;12.38;1.40;;;6.60;99.90;;;;;;5070223;28;20044;-80
2021/12/18 03:46:47;;;;;;;11.73;1.45;;;6.60;99.90;;;;;;5053322;28;20040;-79
2021/12/18 03:49:13;;;;;;;11.93;1.15;;;6.60;99.90;;;;;;5053713;28;20041;-79
2021/12/18 03:51:39;;;;;;;13.10;1.42;;;6.60;99.90;;;;;;5036737;28;20043;-80
2021/12/18 03:54:05;;;;;;;16.30;1.17;;;6.60;99.90;;;;;;5053316;28;20040;-80
2021/12/18 03:56:31;;;;;;;13.38;1.58;;;6.60;99.90;;;;;;5069298;28;20124;-79
2021/12/18 03:58:57;;;;;;;8.93;1.05;;;6.80;99.90;;;;;;5053595;28;20157;-79
2021/12/18 04:01:23;;;;;;;7.60;1.20;;;6.60;99.90;;;;;;5052369;28;20033;-79
2021/12/18 04:03:49;;;;;;;5.10;0.82;;;6.60;99.90;;;;;;5053133;28;20037;-79
2021/12/18 04:06:14;;;;;;;16.37;1.60;;;6.60;99.90;;;;;;5053287;28;20036;-79
2021/12/18 04:08:40;;;;;;;8.80;1.23;;;6.60;99.90;;;;;;5053246;28;20376;-79
2021/12/18 04:11:06;;;;;;;10.73;1.10;;;6.70;99.90;;;;;;5069650;28;20052;-79
2021/12/18 04:13:32;;;;;;;10.85;1.98;;;6.70;99.90;;;;;;5052732;28;20507;-79
2021/12/18 04:15:57;;;;;;;16.63;1.60;;;6.60;99.90;;;;;;5053355;28;20131;-79
2021/12/18 04:18:23;;;;;;;5.13;1.53;;;7.40;99.90;;;;;;5052733;28;20045;-79
2021/12/18 04:20:49;;;;;;;4.10;1.40;;;6.70;99.90;;;;;;5036240;28;20507;-79
2021/12/18 04:23:15;;;;;;;11.75;1.70;;;7.00;99.90;;;;;;5069433;28;20040;-79
2021/12/18 04:25:41;;;;;;;7.45;1.23;;;6.70;99.90;;;;;;5069552;28;20056;-80
2021/12/18 04:28:07;;;;;;;2.80;1.05;;;6.70;99.90;;;;;;5069771;28;20039;-79
2021/12/18 04:30:33;;;;;;;6.32;1.40;;;6.70;99.90;;;;;;5069460;28;20044;-80
2021/12/18 04:32:59;;;;;;;6.30;1.20;;;7.50;99.90;;;;;;5036308;28;20086;-80
2021/12/18 04:35:25;;;;;;;4.90;1.23;;;6.70;99.90;;;;;;5052566;28;20071;-79
2021/12/18 04:37:51;;;;;;;4.90;1.25;;;6.90;99.90;;;;;;5051487;28;20048;-79
2021/12/18 04:40:16;;;;;;;6.47;1.42;;;6.80;99.90;;;;;;5067392;28;20115;-80
2021/12/18 04:42:42;;;;;;;5.85;1.30;;;6.80;99.90;;;;;;5068006;28;20384;-79
2021/12/18 04:45:09;;;;;;;7.10;1.38;;;6.80;99.90;;;;;;5052986;28;20131;-79
2021/12/18 04:47:34;;;;;;;;;;;6.80;99.90;;;;;;5068954;28;20070;-79
2021/12/18 04:50:00;;;;;;;7.07;1.60;;;6.80;99.90;;;;;;5069249;28;19924;-80
2021/12/18 04:52:26;;;;;;;4.50;1.27;;;7.20;99.90;;;;;;5069103;28;20040;-79
2021/12/18 04:54:52;;;;;;;9.85;1.80;;;6.80;99.90;;;;;;5069249;28;20044;-79
2021/12/18 04:57:18;;;;;;;7.43;1.75;;;7.00;99.90;;;;;;5052708;28;20484;-79
2021/12/18 04:59:44;;;;;;;5.07;1.42;;;7.00;99.90;;;;;;5050341;28;20108;-80
2021/12/18 05:02:18;;;;;;;6.57;1.67;;;6.80;99.90;;;;;;5052778;28;20125;-79
2021/12/18 05:04:44;;;;;;;7.35;1.80;;;6.80;99.90;;;;;;5051858;28;20028;-79
2021/12/18 05:07:11;;;;;;;7.93;1.77;;;6.80;99.90;;;;;;5052695;28;20068;-80
2021/12/18 05:09:38;;;;;;;9.60;2.13;;;6.80;99.90;;;;;;5052625;28;20041;-79
2021/12/18 05:12:04;;;;;;;7.97;1.50;;;6.80;99.90;;;;;;5052427;28;20040;-79
2021/12/18 05:14:30;;;;;;;7.47;2.05;;;6.80;99.90;;;;;;5035702;28;20550;-79
2021/12/18 05:16:56;;;;;;;7.30;1.90;;;6.90;99.90;;;;;;5035120;28;20049;-79
2021/12/18 05:19:21;;;;;;;8.55;2.03;;;6.90;99.90;;;;;;5068845;28;20293;-79
2021/12/18 05:21:47;;;;;;;10.60;2.40;;;6.90;99.90;;;;;;5052146;28;20028;-79
2021/12/18 05:24:13;;;;;;;10.65;2.53;;;6.90;99.90;;;;;;5069536;28;20634;-80
2021/12/18 05:26:39;;;;;;;9.00;2.15;;;6.90;99.90;;;;;;5068777;28;20050;-79
2021/12/18 05:29:05;;;;;;;13.55;2.63;;;6.90;99.90;;;;;;5068894;28;20044;-79
2021/12/18 05:31:30;;;;;;;10.88;2.78;;;7.00;99.90;;;;;;5069124;28;20036;-80
2021/12/18 05:34:00;;;;;;;10.75;3.08;;;7.60;99.90;;;;;;5052069;28;20044;-80
2021/12/18 05:39:21;;;;;;;10.18;3.33;;;7.00;99.90;;;;;;5033576;28;20095;-79
2021/12/18 05:41:50;;;;;;;14.65;3.60;;;7.00;99.90;;;;;;5032964;28;20365;-80
2021/12/18 05:44:20;;;;;;;19.80;4.47;;;7.10;99.90;;;;;;5068820;28;20361;-80
2021/12/18 05:46:47;;;;;;;11.35;3.72;;;7.10;99.90;;;;;;5068519;28;20476;-80
2021/12/18 05:49:13;;;;;;;18.25;4.13;;;7.10;99.90;;;;;;5052115;28;20111;-80
2021/12/18 05:51:39;;;;;;;13.38;4.03;;;7.10;99.90;;;;;;5068666;28;20053;-80
2021/12/18 05:54:05;;;;;;;13.48;3.90;;;7.20;99.90;;;;;;5068678;28;20037;-80
2021/12/18 05:56:32;;;;;;;17.40;4.45;;;7.20;99.90;;;;;;5068479;28;20037;-79
2021/12/18 05:58:58;;;;;;;16.60;4.45;;;7.30;99.90;;;;;;5068641;28;20518;-80
2021/12/18 06:01:25;;;;;;;11.98;3.80;;;7.20;99.90;;;;;;5068854;28;20099;-80
2021/12/18 06:03:51;;;;;;;14.30;3.88;;;7.30;99.90;;;;;;5068929;28;20127;-80
2021/12/18 06:06:17;;;;;;;18.65;5.70;;;7.20;99.90;;;;;;5068827;28;20036;-79
2021/12/18 06:08:43;;;;;;;20.05;4.85;;;7.30;99.90;;;;;;5068220;28;20043;-78
2021/12/18 06:11:14;;;;;;;16.90;4.90;;;7.30;99.90;;;;;;5051471;28;20098;-79
2021/12/18 06:13:44;;;;;;;14.88;4.53;;;7.30;99.90;;;;;;5052495;28;20048;-80
2021/12/18 06:16:11;;;;;;;21.10;5.38;;;7.30;99.90;;;;;;5051756;28;20076;-79
2021/12/18 06:18:44;;;;;;;21.13;5.10;;;7.40;99.90;;;;;;5034989;28;20088;-80
2021/12/18 06:21:13;;;;;;;21.48;6.35;;;7.40;99.90;;;;;;5052337;28;20036;-80
2021/12/18 06:23:40;;;;;;;17.23;5.45;;;7.40;99.90;;;;;;5052260;28;20044;-79
2021/12/18 06:26:06;;;;;;;21.88;5.57;;;7.40;99.90;;;;;;5054652;28;20403;-80
2021/12/18 06:28:32;;;;;;;22.02;5.45;;;7.50;99.90;;;;;;5038982;28;20044;-79
2021/12/18 06:30:58;;;;;;;23.48;5.60;;;7.50;99.90;;;;;;5071487;28;20040;-80
2021/12/18 06:33:24;;;;;;;21.90;5.75;;;7.50;99.90;;;;;;5072015;28;20051;-79
2021/12/18 06:35:49;;;;;;;20.00;5.63;;;7.50;99.90;;;;;;5070988;28;20067;-80
2021/12/18 06:38:16;;;;;;;14.48;5.13;;;7.50;99.90;;;;;;5071709;28;20036;-80
2021/12/18 06:40:41;;;;;;;19.05;4.53;;;7.50;99.90;;;;;;5069712;28;20047;-80
2021/12/18 06:43:07;;;;;;;14.25;4.43;;;7.50;99.90;;;;;;5070347;28;20032;-80
2021/12/18 06:45:33;;;;;;;14.45;4.30;;;7.60;99.90;;;;;;5070519;28;20043;-80
2021/12/18 06:47:59;;;;;;;14.88;4.63;;;7.60;99.90;;;;;;5071458;28;20123;-80
2021/12/18 06:50:25;;;;;;;12.82;4.13;;;7.70;99.90;;;;;;5054885;28;20042;-80
2021/12/18 06:52:51;;;;;;;13.50;3.63;;;7.60;99.90;;;;;;5071083;28;20119;-80
2021/12/18 06:55:17;;;;;;;13.38;4.05;;;7.70;99.90;;;;;;5054783;28;20115;-80
2021/12/18 06:57:43;;;;;;;10.23;3.70;;;7.80;99.90;;;;;;5054739;28;20545;-80
2021/12/18 07:00:12;;;;;;;11.90;3.92;;;7.60;99.90;;;;;;5071583;28;20078;-80
2021/12/18 07:02:38;;;;;;;14.20;3.53;;;7.70;99.90;;;;;;5071938;28;20738;-80
2021/12/18 07:05:04;;;;;;;10.30;3.72;;;7.50;99.90;;;;;;5054511;28;20047;-80
2021/12/18 07:07:30;;;;;;;11.63;3.60;;;7.70;99.90;;;;;;5071444;28;20036;-80
2021/12/18 07:09:56;;;;;;;10.18;3.58;;;7.70;99.90;;;;;;5052813;28;20069;-80
2021/12/18 07:12:22;;;;;;;11.03;3.90;;;7.70;99.90;;;;;;5071894;28;20051;-82
2021/12/18 07:14:47;;;;;;;12.00;3.30;;;7.70;99.90;;;;;;5054494;28;20293;-80
2021/12/18 07:17:13;;;;;;;8.75;2.90;;;7.70;99.90;;;;;;5054766;28;20139;-80
2021/12/18 07:19:39;;;;;;;6.68;2.70;;;7.70;99.90;;;;;;5037995;28;20226;-79
2021/12/18 07:22:05;;;;;;;6.35;2.80;;;7.80;99.90;;;;;;5071385;28;20089;-80
2021/12/18 07:24:31;;;;;;;9.38;2.80;;;7.80;99.90;;;;;;5071689;28;20066;-82
2021/12/18 07:26:57;;;;;;;12.15;2.90;;;7.90;99.90;;;;;;5071996;28;20485;-84
2021/12/18 07:29:24;;;;;;;10.15;2.63;;;7.80;99.90;;;;;;5073386;28;20037;-84
2021/12/18 07:31:53;;;;;;;11.88;2.70;;;7.80;99.90;;;;;;5074039;28;20545;-85
2021/12/18 07:34:19;;;;;;;10.80;2.85;;;7.80;99.90;;;;;;5056225;28;20185;-83
2021/12/18 07:36:44;;;;;;;6.78;2.42;;;7.80;99.90;;;;;;5055905;28;20170;-83
2021/12/18 07:39:11;;;;;;;10.95;2.60;;;7.90;99.90;;;;;;5073663;28;20115;-84
2021/12/18 07:41:37;;;;;;;9.20;2.50;;;7.90;99.90;;;;;;5074284;28;20032;-83
2021/12/18 07:44:06;;;;;;;11.70;2.70;;;7.90;99.90;;;;;;5074197;28;20037;-85
2021/12/18 07:46:33;;;;;;;10.95;2.67;;;7.90;99.90;;;;;;5058362;28;20117;-83
2021/12/18 07:48:59;;;;;;;9.95;2.47;;;7.90;99.90;;;;;;5044454;28;20045;-83
2021/12/18 07:51:25;;;;;;;10.07;2.47;;;7.90;99.90;;;;;;5077006;28;20040;-83
2021/12/18 07:53:51;;;;;;;9.95;2.85;;;7.90;99.90;;;;;;5062475;28;20040;-83
2021/12/18 07:56:18;;;;;;;11.68;3.13;;;7.90;99.90;;;;;;5077417;28;20047;-84
2021/12/18 07:58:45;;;;;;;13.05;2.78;;;7.90;99.90;;;;;;5077335;28;20049;-83
2021/12/18 08:01:11;;;;;;;;;;;8.00;99.90;;;;;;5078575;28;20044;-82
2021/12/18 08:03:36;;;;;;;7.40;2.28;;;8.10;99.90;;;;;;5075784;28;19916;-82
2021/12/18 08:06:03;;;;;;;7.47;2.55;;;8.00;99.90;;;;;;5076997;28;20083;-82
2021/12/18 08:08:28;;;;;;;10.35;3.05;;;8.00;99.90;;;;;;5076303;28;20116;-82
2021/12/18 08:10:54;;;;;;;10.20;2.92;;;8.00;99.90;;;;;;5059344;28;20068;-82
2021/12/18 08:13:20;;;;;;;8.82;2.67;;;8.00;99.90;;;;;;5073240;28;20048;-82
2021/12/18 08:15:46;;;;;;;12.33;3.30;;;8.40;99.90;;;;;;5072654;28;20111;-82
2021/12/18 08:18:11;;;;;;;13.77;2.88;;;8.10;99.90;;;;;;5072024;28;20289;-82
2021/12/18 08:20:37;;;;;;;8.23;2.90;;;8.00;99.90;;;;;;5039646;28;20040;-83
2021/12/18 08:23:04;;;;;;;8.70;3.35;;;8.20;99.90;;;;;;5072332;28;20326;-82
2021/12/18 08:25:31;;;;;;;8.65;2.65;;;8.40;99.90;;;;;;5055551;28;20044;-82
2021/12/18 08:27:59;;;;;;;5.68;2.33;;;8.00;99.90;;;;;;5055443;28;20040;-83
2021/12/18 08:30:29;;;;;;;11.18;2.75;;;8.00;99.90;;;;;;5055493;28;20032;-82
2021/12/18 08:32:58;;;;;;;4.53;1.98;;;8.00;99.90;;;;;;5071964;28;20048;-83
2021/12/18 08:35:27;;;;;;;6.78;2.45;;;8.10;99.90;;;;;;5055813;28;20067;-82
2021/12/18 08:37:55;;;;;;;12.27;2.15;;;8.00;99.90;;;;;;5051189;28;20107;-83
2021/12/18 08:40:20;;;;;;;7.10;2.00;;;8.00;99.90;;;;;;5071775;28;20146;-83
2021/12/18 08:42:46;;;;;;;8.23;1.90;;;8.10;99.90;;;;;;5071445;28;20503;-83
2021/12/18 08:45:12;;;;;;;7.00;1.90;;;8.10;99.90;;;;;;5071295;28;20093;-83
2021/12/18 08:47:38;;;;;;;10.80;2.00;;;8.30;99.90;;;;;;5070933;28;20800;-83
2021/12/18 08:50:06;;;;;;;17.02;2.20;;;8.20;99.90;;;;;;5071438;28;20055;-83
2021/12/18 08:52:33;;;;;;;5.95;1.75;;;8.20;99.90;;;;;;5071944;28;20490;-82
2021/12/18 08:54:59;;;;;;;;;;;8.20;99.90;;;;;;5071142;28;20051;-83
2021/12/18 08:57:25;;;;;;;8.52;1.83;;;8.10;99.90;;;;;;5055090;28;20050;-82
2021/12/18 08:59:50;;;;;;;10.25;1.90;;;8.30;99.90;;;;;;5054924;28;20123;-80
2021/12/18 09:02:17;;;;;;;4.60;1.93;;;8.20;99.90;;;;;;5053853;28;20484;-83
2021/12/18 09:04:42;;;;;;;6.20;2.05;;;8.20;99.90;;;;;;5070554;28;20037;-82
2021/12/18 09:07:08;;;;;;;6.88;1.75;;;8.20;99.90;;;;;;5054421;28;20036;-80
2021/12/18 09:09:34;;;;;;;4.47;1.80;;;8.30;99.90;;;;;;5036534;28;20060;-84
2021/12/18 09:12:00;;;;;;;7.97;2.53;;;8.30;99.90;;;;;;5070245;28;20094;-82
2021/12/18 09:14:26;;;;;;;5.85;2.03;;;8.30;99.90;;;;;;5055088;28;20492;-81
2021/12/18 09:16:53;;;;;;;7.50;2.27;;;8.30;99.90;;;;;;5075108;28;20045;-83
2021/12/18 09:19:19;;;;;;;7.22;2.15;;;8.30;99.90;;;;;;5053910;28;20358;-82
2021/12/18 09:21:45;;;;;;;9.30;2.22;;;8.30;99.90;;;;;;5070824;28;20032;-83
2021/12/18 09:24:11;;;;;;;7.72;2.75;;;8.30;99.90;;;;;;5054807;28;20029;-83
2021/12/18 09:26:37;;;;;;;8.32;4.28;;;8.30;99.90;;;;;;5054913;28;20119;-84
2021/12/18 09:29:08;;;;;;;11.85;5.15;;;8.30;99.90;;;;;;5053227;28;20051;-85
2021/12/18 09:31:34;;;;;;;8.05;4.30;;;8.30;99.90;;;;;;5099839;28;20162;-83
2021/12/18 09:33:59;;;;;;;9.57;4.20;;;8.30;99.90;;;;;;5069869;28;20123;-84
2021/12/18 09:36:25;;;;;;;13.80;6.80;;;8.30;99.90;;;;;;5020766;28;20036;-84
2021/12/18 09:38:51;;;;;;;14.20;6.33;;;8.40;99.90;;;;;;5071075;28;20283;-83
2021/12/18 09:41:16;;;;;;;11.23;4.95;;;8.30;99.90;;;;;;5039005;28;20377;-83
2021/12/18 09:43:42;;;;;;;12.02;4.57;;;8.40;99.90;;;;;;5036333;28;20607;-84
2021/12/18 09:46:13;;;;;;;7.82;3.60;;;8.30;99.90;;;;;;5069979;28;20044;-83
2021/12/18 09:48:41;;;;;;;9.27;4.22;;;8.40;99.90;;;;;;5070360;28;20119;-86
2021/12/18 09:51:14;;;;;;;11.05;4.72;;;8.40;99.90;;;;;;5071128;28;20033;-83
2021/12/18 09:53:41;;;;;;;10.50;3.85;;;8.40;99.90;;;;;;5054445;28;20044;-84
2021/12/18 09:56:07;;;;;;;12.85;3.70;;;8.40;99.90;;;;;;5070481;28;20389;-84
2021/12/18 09:58:33;;;;;;;;;;;8.40;99.90;;;;;;5071518;28;20536;-85
2021/12/18 10:01:02;;;;;;;11.02;3.53;;;8.40;99.90;;;;;;5073466;28;19956;-83
2021/12/18 10:03:49;;;;;;;8.32;3.30;;;8.40;99.90;;;;;;5074560;28;20464;-84
2021/12/18 10:06:38;;;;;;;6.45;3.33;;;8.50;99.90;;;;;;5056068;28;20037;-80
2021/12/18 10:09:07;;;;;;;7.57;5.35;;;8.40;99.90;;;;;;5070975;28;20041;-82
2021/12/18 10:11:33;;;;;;;8.82;4.20;;;8.40;99.90;;;;;;5074270;28;20522;-82
2021/12/18 10:14:02;;;;;;;9.48;3.70;;;8.40;99.90;;;;;;5072682;28;20064;-82
2021/12/18 10:16:29;;;;;;;10.85;3.70;;;8.40;99.90;;;;;;5073486;28;20041;-83
2021/12/18 10:18:59;;;;;;;10.02;3.30;;;8.40;99.90;;;;;;5073587;28;20048;-83
2021/12/18 10:21:28;;;;;;;8.63;2.78;;;8.50;99.90;;;;;;5074041;28;20032;-86
2021/12/18 10:23:55;;;;;;;10.10;3.90;;;8.50;99.90;;;;;;5074183;28;20075;-84
2021/12/18 10:26:43;;;;;;;9.52;3.35;;;8.50;99.90;;;;;;5073669;28;20044;-86
2021/12/18 10:29:26;;;;;;;11.35;4.13;;;8.50;99.90;;;;;;5073677;28;20101;-86
2021/12/18 10:31:52;;;;;;;11.27;3.80;;;8.50;99.90;;;;;;5056729;28;20484;-84
2021/12/18 10:34:25;;;;;;;15.43;4.45;;;8.50;99.90;;;;;;5056760;28;20033;-83
2021/12/18 10:37:24;;;;;;;11.50;4.20;;;8.50;99.90;;;;;;5057403;28;20464;-84
2021/12/18 10:40:04;;;;;;;11.30;4.25;;;8.50;99.90;;;;;;5074133;28;20455;-84
2021/12/18 10:42:42;;;;;;;15.68;4.43;;;8.50;99.90;;;;;;5075359;28;20059;-82
2021/12/18 10:45:24;;;;;;;9.00;3.88;;;8.50;99.90;;;;;;5058826;28;20036;-82
2021/12/18 10:47:57;;;;;;;10.02;3.80;;;8.50;99.90;;;;;;5074375;28;20119;-83
2021/12/18 10:50:30;;;;;;;9.82;3.50;;;8.60;99.90;;;;;;5072171;28;20397;-83
2021/12/18 10:52:58;;;;;;;9.45;3.40;;;8.60;99.90;;;;;;5057509;28;20502;-83
2021/12/18 10:55:30;;;;;;;9.40;3.83;;;8.60;99.90;;;;;;5056591;28;20060;-82
2021/12/18 10:57:56;;;;;;;14.48;3.70;;;8.60;99.90;;;;;;5073726;28;20477;-83
2021/12/18 11:00:43;;;;;;;14.13;3.83;;;8.60;99.90;;;;;;5057471;28;20041;-84
2021/12/18 11:03:24;;;;;;;10.35;3.05;;;8.60;99.90;;;;;;5057478;28;20044;-83
2021/12/18 11:06:09;;;;;;;8.85;3.47;;;8.60;99.90;;;;;;5073810;28;20432;-84
2021/12/18 11:08:56;;;;;;;11.50;3.10;;;8.70;99.90;;;;;;5056516;28;20037;-83
2021/12/18 11:14:02;;;;;;;10.38;3.38;;;8.70;99.90;;;;;;5073849;28;20041;-88
2021/12/18 11:16:29;;;;;;;8.93;3.15;;;8.70;99.90;;;;;;5073879;28;20033;-84
2021/12/18 11:18:55;;;;;;;12.10;4.38;;;8.70;99.90;;;;;;5056977;28;20041;-83
2021/12/18 11:21:25;;;;;;;9.73;3.95;;;8.70;99.90;;;;;;5055922;28;20109;-82
2021/12/18 11:24:04;;;;;;;8.48;4.22;;;8.80;99.90;;;;;;5072943;28;20507;-82
2021/12/18 11:26:44;;;;;;;13.77;4.20;;;8.80;99.90;;;;;;5071485;28;20080;-83
2021/12/18 11:29:51;;;;;;;7.78;3.33;;;8.80;99.90;;;;;;5073430;28;20063;-80
2021/12/18 11:32:22;;;;;;;7.90;2.70;;;8.80;99.90;;;;;;5055074;28;20036;-80
2021/12/18 11:34:51;;;;;;;8.85;2.65;;;8.70;99.90;;;;;;5055337;28;20040;-84
2021/12/18 11:37:19;;;;;;;7.65;2.30;;;8.80;99.90;;;;;;5057236;28;20040;-85
2021/12/18 11:39:46;;;;;;;9.85;2.45;;;8.80;99.90;;;;;;5056174;28;20540;-83
2021/12/18 11:42:14;;;;;;;6.75;1.85;;;8.80;99.90;;;;;;5056241;28;20407;-87
2021/12/18 11:44:45;;;;;;;12.20;2.40;;;8.80;99.90;;;;;;5072678;28;20047;-82
2021/12/18 11:47:27;;;;;;;5.00;2.10;;;8.90;99.90;;;;;;5053111;28;20708;-82
2021/12/18 11:50:19;;;;;;;12.10;2.42;;;8.90;99.90;;;;;;5071740;28;20052;-82
2021/12/18 11:53:05;;;;;;;6.70;2.20;;;8.90;99.90;;;;;;5062862;28;20049;-83
2021/12/18 11:55:35;;;;;;;5.82;2.80;;;9.00;99.90;;;;;;5072256;28;20040;-82
2021/12/18 11:58:12;;;;;;;10.35;2.20;;;9.00;99.90;;;;;;5071313;28;20504;-82
2021/12/18 12:00:37;;;;;;;7.70;2.17;;;9.00;99.90;;;;;;5069621;28;20047;-82
2021/12/18 12:03:08;;;;;;;11.25;2.97;;;9.00;99.90;;;;;;5071671;28;20040;-82
2021/12/18 12:05:38;;;;;;;6.68;2.70;;;9.00;99.90;;;;;;5038236;28;20037;-82
2021/12/18 12:08:41;;;;;;;8.70;2.55;;;9.10;99.90;;;;;;5071253;28;20085;-82
2021/12/18 12:11:20;;;;;;;10.18;3.03;;;9.10;99.90;;;;;;5087976;28;20508;-82
2021/12/18 12:14:00;;;;;;;10.85;2.78;;;9.10;99.90;;;;;;5069837;28;20119;-82
2021/12/18 12:16:49;;;;;;;14.70;3.20;;;9.00;99.90;;;;;;5070786;28;20076;-82
2021/12/18 12:19:20;;;;;;;9.35;2.85;;;9.10;99.90;;;;;;5065969;28;20177;-83
2021/12/18 12:21:48;;;;;;;9.35;3.10;;;9.10;99.90;;;;;;5070848;28;20093;-82
2021/12/18 12:24:17;;;;;;;8.20;2.30;;;9.10;99.90;;;;;;5070589;28;20503;-82
2021/12/18 12:26:43;;;;;;;12.48;2.30;;;9.00;99.90;;;;;;5070970;28;20101;-82
2021/12/18 12:29:10;;;;;;;9.30;2.35;;;9.10;99.90;;;;;;5071251;28;20447;-82
2021/12/18 12:31:36;;;;;;;9.27;2.83;;;9.10;99.90;;;;;;5055117;28;20028;-83
2021/12/18 12:34:21;;;;;;;6.63;2.58;;;9.00;99.90;;;;;;5038525;28;20041;-82
2021/12/18 12:36:47;;;;;;;7.72;2.83;;;9.10;99.90;;;;;;5071263;28;20047;-83
2021/12/18 12:39:15;;;;;;;12.52;3.33;;;9.10;99.90;;;;;;5054915;28;20157;-82
2021/12/18 12:41:48;;;;;;;14.30;3.08;;;9.10;99.90;;;;;;5070940;28;20051;-82
2021/12/18 12:44:27;;;;;;;9.05;3.20;;;9.00;99.90;;;;;;5068414;28;20068;-82
2021/12/18 12:47:15;;;;;;;7.88;3.03;;;9.00;99.90;;;;;;5071165;28;20493;-82
2021/12/18 12:49:42;;;;;;;8.90;3.10;;;9.00;99.90;;;;;;5054426;28;20040;-80
2021/12/18 12:52:13;;;;;;;12.52;3.40;;;9.10;99.90;;;;;;5070538;28;20044;-82
2021/12/18 12:55:00;;;;;;;13.70;3.40;;;9.00;99.90;;;;;;5054226;28;20094;-82
2021/12/18 12:57:27;;;;;;;10.25;3.00;;;9.00;99.90;;;;;;5070503;28;20488;-85
2021/12/18 12:59:58;;;;;;;5.45;2.45;;;9.00;99.90;;;;;;5070946;28;20041;-82
2021/12/18 13:02:39;;;;;;;9.13;2.80;;;9.00;99.90;;;;;;5070315;28;20090;-83
2021/12/18 13:05:12;;;;;;;11.10;2.70;;;9.00;99.90;;;;;;5054294;28;20120;-83
2021/12/18 13:07:45;;;;;;;9.57;2.78;;;9.00;99.90;;;;;;5054823;28;20068;-85
2021/12/18 13:10:15;;;;;;;12.98;2.88;;;9.00;99.90;;;;;;5071272;28;20036;-82
2021/12/18 13:12:51;;;;;;;12.07;3.13;;;9.00;99.90;;;;;;5069965;28;20036;-85
2021/12/18 13:15:17;;;;;;;9.30;2.60;;;9.00;99.90;;;;;;5052942;28;20083;-85
2021/12/18 13:17:42;;;;;;;6.03;2.25;;;8.90;99.90;;;;;;5069497;28;20526;-85
2021/12/18 13:20:08;;;;;;;5.97;2.47;;;8.90;99.90;;;;;;5070265;28;20036;-85
2021/12/18 13:22:36;;;;;;;7.88;2.20;;;8.90;99.90;;;;;;5069272;28;20059;-84
2021/12/18 13:25:14;;;;;;;9.82;2.20;;;8.90;99.90;;;;;;5069999;28;20045;-85
2021/12/18 13:27:42;;;;;;;7.35;2.60;;;8.90;99.90;;;;;;5052937;28;20067;-85
2021/12/18 13:30:18;;;;;;;7.43;2.70;;;8.90;99.90;;;;;;5069725;28;20060;-85
2021/12/18 13:32:56;;;;;;;4.90;2.40;;;8.90;99.90;;;;;;5069909;28;20029;-84
2021/12/18 13:35:24;;;;;;;9.32;2.08;;;8.90;99.90;;;;;;5054619;28;20131;-84
2021/12/18 13:38:04;;;;;;;6.68;1.75;;;8.90;99.90;;;;;;5073797;28;20033;-84
2021/12/18 13:40:32;;;;;;;7.75;1.70;;;8.80;99.90;;;;;;5072194;28;20174;-84
2021/12/18 13:43:09;;;;;;;5.65;1.63;;;8.90;99.90;;;;;;5057338;28;20020;-84
2021/12/18 13:45:51;;;;;;;9.77;2.53;;;8.90;99.90;;;;;;5071688;28;20127;-84
2021/12/18 13:48:18;;;;;;;7.57;1.70;;;8.80;99.90;;;;;;5071332;28;20047;-84
2021/12/18 13:50:52;;;;;;;8.35;2.25;;;8.80;99.90;;;;;;5073926;28;20088;-84
2021/12/18 13:53:18;;;;;;;4.38;1.75;;;8.80;99.90;;;;;;5073503;28;20130;-84
2021/12/18 13:55:47;;;;;;;8.07;2.08;;;8.80;99.90;;;;;;5074125;28;20116;-84
2021/12/18 13:58:13;;;;;;;10.02;3.15;;;8.70;99.90;;;;;;5056294;28;20068;-84
2021/12/18 14:00:57;;;;;;;9.67;2.40;;;8.80;99.90;;;;;;5072727;28;20105;-84
2021/12/18 14:03:25;;;;;;;5.68;1.92;;;8.80;99.90;;;;;;5073294;28;20032;-84